createdAt,value
2023-12-22T00:09:43.498Z,9.762794
2023-12-22T00:10:43.511Z,9.762745
2023-12-22T00:11:43.508Z,9.762586
2023-12-22T00:12:43.462Z,9.762345
2023-12-22T00:13:43.546Z,9.762583
2023-12-22T00:14:43.488Z,9.762482
2023-12-22T00:15:43.521Z,9.762129
2023-12-22T00:16:43.510Z,9.762588
2023-12-22T00:17:43.439Z,9.762588
2023-12-22T00:18:43.530Z,9.762588
2023-12-22T00:19:43.584Z,9.762588
2023-12-22T00:20:43.411Z,9.762042
2023-12-22T00:21:43.395Z,9.762042
2023-12-22T00:22:43.450Z,9.762042
2023-12-22T00:23:43.387Z,9.762042
2023-12-22T00:24:43.367Z,9.762042
2023-12-22T00:25:43.386Z,9.762042
2023-12-22T00:26:43.376Z,9.762042
2023-12-22T00:27:43.367Z,9.762042
2023-12-22T00:28:43.379Z,9.762042
2023-12-22T00:29:43.347Z,9.762042
2023-12-22T00:30:43.344Z,9.762042
2023-12-22T00:31:43.380Z,9.762042
2023-12-22T00:32:43.354Z,9.762042
2023-12-22T00:33:43.364Z,9.762042
2023-12-22T00:34:43.336Z,9.762042
2023-12-22T00:35:43.276Z,9.762042
2023-12-22T00:36:43.254Z,9.762042
2023-12-22T00:37:43.273Z,9.762042
2023-12-22T00:38:43.280Z,9.762042
2023-12-22T00:39:43.242Z,9.762042
2023-12-22T00:40:43.290Z,9.762042
2023-12-22T00:41:43.215Z,9.762042
2023-12-22T00:42:43.228Z,9.762042
2023-12-22T00:43:43.226Z,9.762042
2023-12-22T00:44:43.208Z,9.762042
2023-12-22T00:45:43.179Z,9.762042
2023-12-22T00:46:43.164Z,9.762042
2023-12-22T00:47:43.203Z,9.762042
2023-12-22T00:48:43.173Z,9.762042
2023-12-22T00:49:43.151Z,9.762042
2023-12-22T00:50:43.115Z,9.762042
2023-12-22T00:51:43.122Z,9.762042
2023-12-22T00:52:43.125Z,9.762042
2023-12-22T00:53:43.095Z,9.762042
2023-12-22T00:54:43.077Z,9.762042
2023-12-22T00:55:43.122Z,9.762042
2023-12-22T00:56:43.092Z,9.762042
2023-12-22T00:57:43.088Z,9.762042
2023-12-22T00:58:45.830Z,9.762042
2023-12-22T00:59:43.072Z,9.762042
2023-12-22T01:00:43.091Z,9.762042
2023-12-22T01:01:43.140Z,9.762042
2023-12-22T01:02:43.140Z,9.762042
2023-12-22T01:03:43.104Z,9.762042
2023-12-22T01:04:43.262Z,9.762042
2023-12-22T01:05:44.090Z,9.762042
2023-12-22T01:06:43.173Z,9.762042
2023-12-22T01:07:43.031Z,9.762042
2023-12-22T01:08:42.954Z,9.762042
2023-12-22T01:09:42.964Z,9.762042
2023-12-22T01:10:43.117Z,9.762042
2023-12-22T01:11:42.999Z,9.762042
2023-12-22T01:12:43.020Z,9.762042
2023-12-22T01:13:42.973Z,9.762042
2023-12-22T01:14:42.965Z,9.762042
2023-12-22T01:15:42.959Z,9.762042
2023-12-22T01:16:42.991Z,9.762042
2023-12-22T01:17:43.023Z,9.762042
2023-12-22T01:18:43.025Z,9.762042
2023-12-22T01:19:42.975Z,9.762042
2023-12-22T01:20:42.873Z,9.762042
2023-12-22T01:21:42.851Z,9.762042
2023-12-22T01:22:42.894Z,9.762042
2023-12-22T01:23:42.859Z,9.762042
2023-12-22T01:24:42.806Z,9.762042
2023-12-22T01:25:42.815Z,9.762042
2023-12-22T01:26:42.819Z,9.762042
2023-12-22T01:27:42.801Z,9.762042
2023-12-22T01:28:42.825Z,9.762042
2023-12-22T01:29:42.822Z,9.762042
2023-12-22T01:30:42.804Z,9.762042
2023-12-22T01:31:42.825Z,9.762042
2023-12-22T01:32:42.762Z,9.762042
2023-12-22T01:33:42.782Z,9.762042
2023-12-22T01:34:42.791Z,9.762042
2023-12-22T01:35:42.682Z,9.762042
2023-12-22T01:36:43.678Z,9.762042
2023-12-22T01:37:42.701Z,9.762042
2023-12-22T01:38:42.700Z,9.762042
2023-12-22T01:39:42.676Z,9.762042
2023-12-22T01:40:45.429Z,9.762042
2023-12-22T01:41:52.226Z,9.762042
2023-12-22T01:42:44.879Z,9.762042
2023-12-22T01:44:06.896Z,9.762042
2023-12-22T01:47:13.129Z,9.762042
2023-12-22T01:47:48.742Z,9.762042
2023-12-22T01:48:28.601Z,9.762042
2023-12-22T01:49:48.549Z,9.762807
2023-12-22T01:50:15.717Z,9.762506
2023-12-22T01:51:27.465Z,9.762910
2023-12-22T01:52:31.996Z,9.762161
2023-12-22T01:53:16.983Z,9.762461
2023-12-22T01:54:15.952Z,9.762572
2023-12-22T01:55:32.270Z,9.761965
2023-12-22T01:56:28.966Z,9.761965
2023-12-22T01:57:31.265Z,9.761965
2023-12-22T01:58:16.983Z,9.761965
2023-12-22T01:59:30.301Z,9.761062
2023-12-22T02:00:23.384Z,9.761125
2023-12-22T02:03:29.983Z,9.761125
2023-12-22T02:04:59.503Z,9.761125
2023-12-22T02:05:32.166Z,9.761125
2023-12-22T02:06:25.994Z,9.761125
2023-12-22T02:09:17.535Z,9.761125
2023-12-22T02:09:44.448Z,9.761125
2023-12-22T02:10:22.703Z,9.761125
2023-12-22T02:11:29.999Z,9.761125
2023-12-22T02:12:31.230Z,9.761125
2023-12-22T02:13:23.605Z,9.761125
2023-12-22T02:14:23.431Z,9.761125
2023-12-22T02:15:19.132Z,9.761125
2023-12-22T02:16:34.530Z,9.761933
2023-12-22T02:17:24.503Z,9.762006
2023-12-22T02:18:19.199Z,9.762215
2023-12-22T02:19:22.683Z,9.762215
2023-12-22T20:40:44.711Z,9.762983
2023-12-22T20:41:44.662Z,9.762807
2023-12-22T20:42:44.694Z,9.762832
2023-12-22T20:43:44.716Z,9.762823
2023-12-22T20:44:44.646Z,9.762752
2023-12-22T20:45:44.628Z,9.762870
2023-12-22T20:46:44.656Z,9.762943
2023-12-22T20:47:44.665Z,9.762779
2023-12-22T20:48:44.980Z,9.762681
2023-12-22T20:49:44.678Z,9.762842
2023-12-22T20:50:45.483Z,9.762800
2023-12-22T20:51:45.726Z,9.762850
2023-12-22T20:52:44.609Z,9.762552
2023-12-22T20:53:44.597Z,9.762707
2023-12-22T20:54:44.582Z,9.762774
2023-12-22T20:55:44.610Z,9.762759
2023-12-22T20:56:44.550Z,9.762694
2023-12-22T20:57:46.240Z,9.762751
2023-12-22T20:58:44.521Z,9.762906
2023-12-22T20:59:44.500Z,9.762894
2023-12-22T21:00:44.501Z,9.762866
2023-12-22T21:01:54.613Z,9.762874
2023-12-22T21:02:48.038Z,9.762916
2023-12-22T21:03:44.499Z,9.762712
2023-12-22T21:04:44.544Z,9.762764
2023-12-22T21:05:45.320Z,9.762363
2023-12-22T21:06:44.765Z,9.762689
2023-12-22T21:07:45.853Z,9.762769
2023-12-22T21:08:45.230Z,9.762899
2023-12-22T21:09:44.490Z,9.763021
2023-12-22T21:10:44.429Z,9.762928
2023-12-22T21:11:46.650Z,9.762766
2023-12-22T21:12:44.799Z,9.762641
2023-12-22T21:13:45.362Z,9.762755
2023-12-22T21:14:46.532Z,9.762854
2023-12-22T21:15:44.789Z,9.762770
2023-12-22T21:16:44.633Z,9.762824
2023-12-22T21:17:45.824Z,9.762686
2023-12-22T21:18:45.395Z,9.762748
2023-12-22T21:19:44.931Z,9.762610
2023-12-22T21:20:45.014Z,9.762683
2023-12-22T21:21:44.890Z,9.763079
2023-12-22T21:22:44.931Z,9.763136
2023-12-22T21:23:45.306Z,9.762848
2023-12-22T21:24:44.332Z,9.762593
2023-12-22T21:25:45.065Z,9.762739
2023-12-22T21:26:45.303Z,9.762657
2023-12-22T21:27:45.030Z,9.762666
2023-12-22T21:28:44.450Z,9.762474
2023-12-22T21:29:45.311Z,9.760592
2023-12-22T21:30:44.412Z,9.763016
2023-12-22T21:31:45.903Z,9.765852
2023-12-22T21:32:44.577Z,9.763134
2023-12-22T21:33:44.505Z,9.762929
2023-12-22T21:34:44.411Z,9.763154
2023-12-22T21:35:44.890Z,9.762662
2023-12-22T21:36:45.022Z,9.762496
2023-12-22T21:37:44.200Z,9.762496
2023-12-22T21:38:44.223Z,9.762496
2023-12-22T21:39:49.398Z,9.762496
2023-12-22T21:40:44.169Z,9.762496
2023-12-22T21:41:45.587Z,9.762496
2023-12-22T21:42:44.115Z,9.762496
2023-12-22T21:43:44.105Z,9.762496
2023-12-22T21:44:44.169Z,9.762496
2023-12-22T21:45:44.041Z,9.762496
2023-12-22T21:46:44.070Z,9.762496
2023-12-22T21:47:44.125Z,9.762496
2023-12-22T21:48:44.161Z,9.762496
2023-12-22T21:49:44.061Z,9.762496
2023-12-22T21:50:44.051Z,9.762496
2023-12-22T21:51:44.030Z,9.762496
2023-12-22T21:52:44.766Z,9.762496
2023-12-22T21:53:44.059Z,9.762496
2023-12-22T21:54:44.014Z,9.762496
2023-12-22T21:55:44.012Z,9.762496
2023-12-22T21:56:43.982Z,9.762496
2023-12-22T21:57:44.021Z,9.762496
2023-12-22T21:58:44.013Z,9.762496
2023-12-22T21:59:44.003Z,9.762496
2023-12-22T22:00:44.044Z,9.762496
2023-12-22T22:01:43.986Z,9.762496
2023-12-22T22:02:43.925Z,9.762496
2023-12-22T22:03:43.955Z,9.762496
2023-12-22T22:04:43.936Z,9.762496
2023-12-22T22:05:43.953Z,9.762496
2023-12-22T22:06:43.872Z,9.762496
2023-12-22T22:07:43.935Z,9.762496
2023-12-22T22:08:43.846Z,9.762496
2023-12-22T22:09:43.840Z,9.762496
2023-12-22T22:10:43.882Z,9.762496
2023-12-22T22:11:43.886Z,9.762496
2023-12-22T22:12:48.990Z,9.762496
2023-12-22T22:13:45.956Z,9.762496
2023-12-22T22:14:43.798Z,9.762496
2023-12-22T22:15:43.799Z,9.762496
2023-12-22T22:16:43.752Z,9.762496
2023-12-22T22:17:43.798Z,9.762496
2023-12-22T22:18:43.795Z,9.762496
2023-12-22T22:19:43.780Z,9.762496
2023-12-22T22:20:43.767Z,9.762496
2023-12-22T22:21:43.735Z,9.762496
2023-12-22T22:22:43.821Z,9.762496
2023-12-22T22:23:43.724Z,9.762496
2023-12-22T22:24:43.740Z,9.762496
2023-12-22T22:25:43.700Z,9.762496
2023-12-22T22:26:43.678Z,9.762496
2023-12-22T22:27:43.677Z,9.762496
2023-12-22T22:28:43.715Z,9.762496
2023-12-22T22:29:43.734Z,9.762496
2023-12-22T22:30:45.315Z,9.762496
2023-12-22T22:31:44.686Z,9.762496
2023-12-22T22:32:43.725Z,9.762496
2023-12-22T22:33:43.620Z,9.762496
2023-12-22T22:34:43.644Z,9.762496
2023-12-22T22:35:43.618Z,9.762496
2023-12-22T22:36:43.620Z,9.762496
2023-12-22T22:37:43.611Z,9.762496
2023-12-22T22:38:43.551Z,9.762496
2023-12-22T22:39:43.557Z,9.762496
